createdAt,value
2017-11-14T00:02:14.493Z,2.50
2017-11-14T00:04:45.537Z,2.60
2017-11-14T00:10:30.901Z,2.50
2017-11-14T00:13:07.546Z,2.50
2017-11-14T00:15:37.582Z,2.40
2017-11-14T00:18:07.821Z,2.40
2017-11-14T00:20:37.273Z,2.50
2017-11-14T00:23:07.566Z,2.30
2017-11-14T00:25:38.477Z,2.30
2017-11-14T00:28:07.987Z,2.30
2017-11-14T00:30:35.825Z,2.40
2017-11-14T00:33:09.360Z,2.50
2017-11-14T00:35:40.062Z,2.50
2017-11-14T00:38:09.620Z,2.50
2017-11-14T00:40:37.469Z,2.50
2017-11-14T00:43:07.044Z,2.60
2017-11-14T00:45:38.915Z,2.50
2017-11-14T00:48:06.834Z,2.60
2017-11-14T00:50:36.801Z,2.60
2017-11-14T00:53:04.817Z,2.60
2017-11-14T00:55:32.557Z,2.60
2017-11-14T00:58:00.704Z,2.60
2017-11-14T01:00:30.006Z,2.50
2017-11-14T01:02:58.924Z,2.50
2017-11-14T01:05:28.045Z,2.50
2017-11-14T01:07:56.774Z,2.50
2017-11-14T01:10:25.647Z,2.50
2017-11-14T01:12:54.237Z,2.50
2017-11-14T01:15:22.091Z,2.40
2017-11-14T01:21:00.377Z,2.50
2017-11-14T01:23:27.959Z,2.50
2017-11-14T01:25:56.575Z,2.40
2017-11-14T01:28:24.069Z,2.40
2017-11-14T01:30:51.786Z,2.40
2017-11-14T01:33:19.341Z,2.50
2017-11-14T01:35:46.845Z,2.30
2017-11-14T01:38:14.436Z,2.40
2017-11-14T01:40:43.157Z,2.40
2017-11-14T01:43:10.718Z,2.40
2017-11-14T01:45:38.251Z,2.50
2017-11-14T01:48:06.744Z,2.50
2017-11-14T01:50:34.395Z,2.50
2017-11-14T01:53:03.981Z,2.60
2017-11-14T01:55:32.017Z,2.70
2017-11-14T02:00:59.564Z,2.70
2017-11-14T02:03:35.751Z,2.70
2017-11-14T02:06:04.861Z,2.70
2017-11-14T02:08:32.840Z,2.70
2017-11-14T02:11:21.090Z,2.70
2017-11-14T02:13:48.939Z,2.70
2017-11-14T02:16:18.246Z,2.60
2017-11-14T02:18:47.006Z,2.50
2017-11-14T02:21:17.056Z,2.50
2017-11-14T02:23:48.276Z,2.50
2017-11-14T02:26:17.331Z,2.30
2017-11-14T02:28:47.361Z,2.30
2017-11-14T02:31:20.618Z,2.20
2017-11-14T02:33:48.508Z,2.00
2017-11-14T02:36:19.496Z,2.10
2017-11-14T02:38:52.076Z,2.10
2017-11-14T02:41:21.008Z,2.20
2017-11-14T02:43:49.569Z,2.30
2017-11-14T02:46:18.123Z,2.30
2017-11-14T02:48:45.858Z,2.30
2017-11-14T02:51:30.809Z,2.30
2017-11-14T02:53:58.413Z,2.30
2017-11-14T02:56:26.024Z,2.40
2017-11-14T02:58:53.622Z,2.40
2017-11-14T03:01:21.246Z,2.40
2017-11-14T03:03:53.277Z,2.40
2017-11-14T03:06:22.048Z,2.40
2017-11-14T03:08:49.611Z,2.30
2017-11-14T03:11:29.320Z,2.40
2017-11-14T03:13:56.863Z,2.40
2017-11-14T03:16:24.497Z,2.30
2017-11-14T03:18:52.060Z,2.40
2017-11-14T03:21:19.705Z,2.50
2017-11-14T03:23:47.299Z,2.50
2017-11-14T03:26:14.894Z,2.60
2017-11-14T03:28:42.484Z,2.60
2017-11-14T03:31:13.344Z,2.60
2017-11-14T03:33:41.668Z,2.60
2017-11-14T03:36:09.207Z,2.60
2017-11-14T03:38:36.716Z,2.60
2017-11-14T03:41:04.326Z,2.60
2017-11-14T03:43:31.872Z,2.60
2017-11-14T03:45:59.496Z,2.60
2017-11-14T03:48:50.110Z,2.50
2017-11-14T03:51:17.715Z,2.60
2017-11-14T03:53:46.035Z,2.50
2017-11-14T04:02:02.446Z,2.40
2017-11-14T04:04:29.922Z,2.40
2017-11-14T04:06:57.539Z,2.40
2017-11-14T04:09:25.771Z,2.20
2017-11-14T04:23:34.915Z,2.20
2017-11-14T04:26:03.141Z,2.10
2017-11-14T04:28:30.634Z,2.10
2017-11-14T04:30:58.129Z,2.10
2017-11-14T04:33:25.563Z,2.10
2017-11-14T04:35:53.029Z,2.10
2017-11-14T04:38:26.828Z,2.10
2017-11-14T04:40:55.038Z,2.10
2017-11-14T04:43:22.466Z,2.10
2017-11-14T04:45:51.690Z,2.10
2017-11-14T04:48:29.018Z,2.10
2017-11-14T04:50:56.459Z,2.10
2017-11-14T04:53:23.895Z,2.10
2017-11-14T04:55:51.324Z,2.00
2017-11-14T04:58:18.748Z,2.10
2017-11-14T05:00:46.185Z,2.00
2017-11-14T05:03:13.627Z,2.00
2017-11-14T05:05:41.049Z,2.00
2017-11-14T05:08:09.249Z,2.00
2017-11-14T05:10:36.686Z,2.00
2017-11-14T05:13:04.896Z,2.00
2017-11-14T05:15:32.334Z,2.00
2017-11-14T05:17:59.815Z,2.00
2017-11-14T05:20:27.229Z,1.80
2017-11-14T05:22:55.428Z,1.80
2017-11-14T05:25:22.857Z,1.80
2017-11-14T05:27:51.069Z,1.70
2017-11-14T05:30:18.497Z,1.70
2017-11-14T05:32:47.557Z,1.60
2017-11-14T05:35:15.002Z,1.50
2017-11-14T05:37:42.441Z,1.50
2017-11-14T05:40:11.925Z,1.40
2017-11-14T05:42:39.370Z,1.40
2017-11-14T05:45:07.561Z,1.40
2017-11-14T05:47:35.014Z,1.40
2017-11-14T05:50:02.452Z,1.50
2017-11-14T05:52:30.648Z,1.30
2017-11-14T05:54:58.086Z,1.30
2017-11-14T05:57:26.286Z,1.50
2017-11-14T05:59:53.722Z,1.50
2017-11-14T06:02:21.933Z,1.60
2017-11-14T06:04:49.369Z,1.60
2017-11-14T06:07:16.801Z,1.70
2017-11-14T06:09:45.013Z,1.70
2017-11-14T06:12:12.442Z,1.70
2017-11-14T06:14:39.886Z,1.70
2017-11-14T06:17:09.097Z,1.80
2017-11-14T06:19:37.310Z,1.80
2017-11-14T06:22:04.773Z,1.80
2017-11-14T06:24:32.199Z,1.80
2017-11-14T06:26:59.629Z,1.80
2017-11-14T06:29:27.882Z,1.90
2017-11-14T06:31:56.057Z,1.90
2017-11-14T06:34:23.502Z,1.90
2017-11-14T06:36:50.939Z,1.90
2017-11-14T06:39:18.385Z,1.90
2017-11-14T06:41:49.798Z,1.90
2017-11-14T06:44:18.002Z,1.80
2017-11-14T06:46:45.437Z,1.80
2017-11-14T06:49:13.644Z,1.70
2017-11-14T06:51:41.087Z,1.70
2017-11-14T06:54:08.517Z,1.70
2017-11-14T06:56:36.729Z,1.80
2017-11-14T06:59:04.154Z,1.80
2017-11-14T07:01:32.349Z,1.70
2017-11-14T07:03:59.786Z,1.60
2017-11-14T07:06:53.101Z,1.80
2017-11-14T07:09:20.541Z,1.80
2017-11-14T07:11:47.973Z,1.90
2017-11-14T07:14:16.188Z,2.00
2017-11-14T07:16:43.620Z,2.00
2017-11-14T07:19:11.061Z,2.10
2017-11-14T07:21:39.272Z,2.20
2017-11-14T07:24:06.704Z,2.20
2017-11-14T07:26:34.148Z,2.30
2017-11-14T07:29:02.361Z,2.50
2017-11-14T07:31:29.805Z,2.50
2017-11-14T07:33:57.238Z,2.50
2017-11-14T07:36:25.444Z,2.80
2017-11-14T07:38:52.869Z,2.80
2017-11-14T07:41:22.156Z,3.00
2017-11-14T07:43:50.360Z,3.00
2017-11-14T07:46:17.803Z,3.00
2017-11-14T07:48:45.994Z,3.00
2017-11-14T07:51:13.436Z,3.00
2017-11-14T07:53:41.643Z,3.20
2017-11-14T07:56:09.101Z,3.20
2017-11-14T07:58:36.581Z,3.20
2017-11-14T08:01:04.027Z,3.20
2017-11-14T08:03:31.455Z,3.20
2017-11-14T08:05:58.885Z,3.20
2017-11-14T08:08:36.437Z,3.40
2017-11-14T08:11:03.882Z,3.40
2017-11-14T08:13:31.305Z,3.40
2017-11-14T08:15:59.512Z,3.60
2017-11-14T08:18:26.945Z,3.50
2017-11-14T08:20:54.478Z,3.60
2017-11-14T08:23:21.905Z,3.70
2017-11-14T08:25:49.379Z,3.70
2017-11-14T08:28:16.811Z,3.80
2017-11-14T08:30:44.257Z,3.80
2017-11-14T08:33:11.709Z,3.80
2017-11-14T08:35:40.157Z,3.90
2017-11-14T08:38:08.354Z,4.00
2017-11-14T08:40:35.800Z,4.00
2017-11-14T08:43:03.989Z,4.10
2017-11-14T08:45:31.467Z,4.10
2017-11-14T08:47:58.913Z,4.00
2017-11-14T08:50:26.373Z,4.10
2017-11-14T08:52:56.851Z,4.20
2017-11-14T08:55:24.300Z,4.30
2017-11-14T08:57:58.776Z,4.50
2017-11-14T09:00:26.209Z,4.60
2017-11-14T09:02:53.645Z,4.60
2017-11-14T09:05:21.078Z,4.70
2017-11-14T09:07:56.006Z,4.80
2017-11-14T09:10:26.774Z,4.90
2017-11-14T09:13:01.163Z,5.00
2017-11-14T09:15:29.369Z,5.10
2017-11-14T09:17:57.866Z,5.20
2017-11-14T09:20:25.415Z,5.30
2017-11-14T09:22:53.630Z,5.30
2017-11-14T09:25:21.134Z,5.30
2017-11-14T09:27:48.574Z,5.30
2017-11-14T09:30:16.005Z,5.40
2017-11-14T09:32:43.446Z,5.50
2017-11-14T09:35:10.882Z,5.60
2017-11-14T09:37:39.084Z,5.70
2017-11-14T09:40:07.285Z,5.70
2017-11-14T09:42:34.717Z,5.60
2017-11-14T09:45:02.169Z,5.70
2017-11-14T09:47:29.584Z,5.80
2017-11-14T09:49:57.026Z,5.90
2017-11-14T09:52:24.462Z,5.90
2017-11-14T09:54:51.915Z,6.00
2017-11-14T09:57:20.445Z,6.10
2017-11-14T09:59:48.999Z,6.20
2017-11-14T10:02:16.431Z,6.60
2017-11-14T10:04:43.913Z,7.40
2017-11-14T10:07:11.410Z,8.60
2017-11-14T10:09:39.679Z,10.60
2017-11-14T10:12:07.110Z,10.60
2017-11-14T10:14:34.546Z,11.80
2017-11-14T10:17:01.983Z,13.00
2017-11-14T10:19:29.475Z,13.60
2017-11-14T10:22:00.864Z,14.10
2017-11-14T10:24:33.052Z,14.60
2017-11-14T10:27:07.721Z,14.60
2017-11-14T10:29:35.190Z,14.60
2017-11-14T10:32:02.627Z,14.80
2017-11-14T10:34:30.070Z,15.40
2017-11-14T10:36:59.392Z,14.70
2017-11-14T10:39:26.837Z,14.70
2017-11-14T10:41:55.182Z,14.80
2017-11-14T10:44:22.634Z,14.80
2017-11-14T10:46:50.990Z,15.20
2017-11-14T10:49:18.480Z,15.20
2017-11-14T10:51:46.947Z,15.90
2017-11-14T10:54:15.159Z,15.60
2017-11-14T10:56:42.629Z,15.50
2017-11-14T10:59:10.064Z,15.20
2017-11-14T11:01:37.498Z,15.50
2017-11-14T11:04:04.944Z,14.80
2017-11-14T11:06:33.181Z,13.70
2017-11-14T11:09:00.638Z,13.70
2017-11-14T11:11:30.144Z,12.80
2017-11-14T11:13:57.595Z,12.00
2017-11-14T11:16:33.576Z,11.60
2017-11-14T11:19:01.043Z,11.20
2017-11-14T11:21:28.478Z,10.60
2017-11-14T11:23:55.922Z,10.20
2017-11-14T11:26:23.363Z,10.00
2017-11-14T11:28:50.800Z,9.80
2017-11-14T11:31:18.239Z,9.70
2017-11-14T11:33:46.439Z,9.70
2017-11-14T11:36:13.869Z,9.70
2017-11-14T11:38:42.081Z,9.70
2017-11-14T11:41:09.515Z,9.70
2017-11-14T11:43:37.775Z,9.90
2017-11-14T11:46:06.002Z,9.70
2017-11-14T11:48:33.498Z,9.70
2017-11-14T11:51:00.943Z,9.60
2017-11-14T11:53:28.373Z,9.70
2017-11-14T11:55:55.828Z,9.80
2017-11-14T11:58:23.262Z,9.80
2017-11-14T12:00:50.693Z,9.70
2017-11-14T12:03:18.909Z,9.70
2017-11-14T12:05:46.353Z,9.70
2017-11-14T12:08:13.779Z,9.70
2017-11-14T12:10:42.991Z,9.50
2017-11-14T12:13:11.195Z,9.40
2017-11-14T12:15:38.624Z,9.40
2017-11-14T12:18:06.833Z,9.40
2017-11-14T12:20:35.385Z,9.40
2017-11-14T12:23:03.583Z,9.20
2017-11-14T12:25:31.010Z,9.20
2017-11-14T12:27:59.312Z,9.20
2017-11-14T12:30:26.738Z,9.20
2017-11-14T12:32:54.930Z,9.10
2017-11-14T12:35:23.374Z,9.10
2017-11-14T12:37:50.798Z,9.00
2017-11-14T12:40:18.231Z,8.90
2017-11-14T12:42:45.675Z,8.90
2017-11-14T12:45:13.876Z,9.00
2017-11-14T12:47:41.310Z,9.00
2017-11-14T12:50:08.744Z,8.90
2017-11-14T12:52:36.204Z,8.90
2017-11-14T12:55:03.650Z,8.80
2017-11-14T12:57:31.074Z,8.90
2017-11-14T12:59:58.520Z,8.90
2017-11-14T13:02:25.954Z,9.00
2017-11-14T13:04:53.400Z,8.90
2017-11-14T13:07:20.823Z,8.90
2017-11-14T13:09:48.254Z,8.90
2017-11-14T13:12:15.675Z,8.90
2017-11-14T13:14:43.107Z,8.90
2017-11-14T13:17:10.529Z,8.90
2017-11-14T13:19:37.949Z,8.90
2017-11-14T13:22:05.391Z,8.90
2017-11-14T13:24:33.598Z,8.90
2017-11-14T13:27:01.014Z,8.90
2017-11-14T13:29:29.233Z,8.90
2017-11-14T13:32:01.562Z,8.90
2017-11-14T13:34:28.985Z,8.90
2017-11-14T13:36:56.412Z,9.00
2017-11-14T13:39:23.847Z,9.00
2017-11-14T13:41:54.046Z,9.00
2017-11-14T13:44:21.508Z,8.90
2017-11-14T13:46:49.698Z,8.90
2017-11-14T13:49:17.897Z,8.90
2017-11-14T13:51:45.328Z,8.90
2017-11-14T13:54:13.531Z,8.90
2017-11-14T13:56:40.952Z,8.90
2017-11-14T14:02:23.639Z,8.90
2017-11-14T14:04:51.180Z,8.90
2017-11-14T17:18:39.599Z,6.00
2017-11-14T17:21:07.813Z,6.10
2017-11-14T17:23:35.256Z,6.00
2017-11-14T17:26:02.685Z,6.10
2017-11-14T17:28:30.127Z,6.20
2017-11-14T17:30:57.599Z,6.20
2017-11-14T17:33:25.800Z,6.20
2017-11-14T17:35:53.230Z,6.20
2017-11-14T17:38:21.467Z,6.20
2017-11-14T17:40:48.910Z,6.20
2017-11-14T17:43:16.341Z,6.20
2017-11-14T17:48:17.071Z,6.10
2017-11-14T17:50:45.287Z,6.10
2017-11-14T17:53:13.709Z,6.10
2017-11-14T17:55:41.196Z,6.00
2017-11-14T17:58:09.377Z,6.00
2017-11-14T18:00:36.815Z,6.00
2017-11-14T18:03:05.031Z,6.00
2017-11-14T18:05:32.455Z,6.00
2017-11-14T18:08:00.666Z,6.00
2017-11-14T18:10:28.119Z,5.90
2017-11-14T18:12:56.558Z,6.00
2017-11-14T18:15:28.205Z,6.00
2017-11-14T18:17:57.427Z,6.00
2017-11-14T18:20:38.322Z,6.00
2017-11-14T18:23:05.758Z,6.00
2017-11-14T18:25:38.531Z,6.00
2017-11-14T18:28:06.744Z,6.00
2017-11-14T18:30:34.176Z,6.00
2017-11-14T18:33:01.623Z,6.00
2017-11-14T18:35:29.832Z,6.10
2017-11-14T18:37:58.265Z,6.00
2017-11-14T18:40:26.456Z,6.10
2017-11-14T18:42:53.907Z,6.10
2017-11-14T18:45:22.117Z,6.10
2017-11-14T18:47:49.569Z,6.10
2017-11-14T18:50:18.636Z,6.10
2017-11-14T18:53:08.925Z,6.10
2017-11-14T18:56:00.037Z,6.10
2017-11-14T18:58:35.745Z,6.10
2017-11-14T19:01:10.776Z,6.00
2017-11-14T19:04:08.305Z,6.00
2017-11-14T19:15:33.883Z,6.00
2017-11-14T19:18:01.314Z,5.90
2017-11-14T19:20:29.556Z,5.90
2017-11-14T19:22:57.454Z,5.90
2017-11-14T19:25:25.662Z,5.90
2017-11-14T19:27:53.098Z,5.90
2017-11-14T19:30:20.540Z,6.00
2017-11-14T19:32:48.750Z,5.90
2017-11-14T19:35:16.183Z,5.90
2017-11-14T19:37:44.392Z,6.00
2017-11-14T19:40:13.901Z,5.90
2017-11-14T19:42:41.347Z,5.90
2017-11-14T19:45:08.782Z,5.90
2017-11-14T19:47:36.224Z,5.90
2017-11-14T19:50:04.423Z,5.90
2017-11-14T19:52:31.861Z,5.90
2017-11-14T19:55:00.056Z,5.90
2017-11-14T19:57:27.553Z,5.90
2017-11-14T20:00:08.194Z,6.00
2017-11-14T20:02:35.621Z,5.90
2017-11-14T20:05:09.308Z,6.10
2017-11-14T20:07:41.574Z,6.00
2017-11-14T20:10:09.010Z,6.00
2017-11-14T20:12:47.957Z,6.10
2017-11-14T20:15:15.428Z,6.00
2017-11-14T20:17:43.639Z,5.90
2017-11-14T20:20:11.085Z,5.90
2017-11-14T20:22:38.519Z,6.00
2017-11-14T20:25:08.745Z,5.80
2017-11-14T20:27:40.807Z,5.80
2017-11-14T20:30:09.004Z,5.80
2017-11-14T20:32:36.449Z,5.80
2017-11-14T20:35:03.884Z,5.90
2017-11-14T20:37:31.341Z,5.90
2017-11-14T20:39:59.768Z,5.90
2017-11-14T20:42:50.185Z,5.90
2017-11-14T20:45:20.958Z,5.90
2017-11-14T20:47:49.162Z,5.90
2017-11-14T20:50:16.614Z,5.90
2017-11-14T20:52:44.042Z,5.90
2017-11-14T20:55:17.478Z,5.80
2017-11-14T20:57:44.928Z,5.80
2017-11-14T21:00:12.352Z,5.70
2017-11-14T21:02:40.739Z,5.70
2017-11-14T21:05:08.942Z,5.60
2017-11-14T21:07:36.384Z,5.60
2017-11-14T21:10:07.379Z,5.60
2017-11-14T21:12:34.821Z,5.60
2017-11-14T21:15:02.284Z,5.60
2017-11-14T21:17:31.739Z,5.60
2017-11-14T21:19:59.175Z,5.70
2017-11-14T21:22:33.065Z,5.60
2017-11-14T21:25:00.513Z,5.70
2017-11-14T21:27:27.958Z,5.70
2017-11-14T21:29:55.406Z,5.70
2017-11-14T21:32:22.846Z,5.70
2017-11-14T21:34:50.372Z,5.70
2017-11-14T21:37:17.810Z,5.70
2017-11-14T21:39:45.287Z,5.60
2017-11-14T21:42:12.713Z,5.60
2017-11-14T21:44:40.152Z,5.60
2017-11-14T21:47:07.577Z,5.60
2017-11-14T21:49:35.829Z,5.60
2017-11-14T21:52:03.261Z,5.60
2017-11-14T21:54:30.702Z,5.70
2017-11-14T21:56:58.141Z,5.70
2017-11-14T21:59:25.576Z,5.70
2017-11-14T22:01:53.781Z,5.70
2017-11-14T22:04:21.223Z,5.70
2017-11-14T22:06:48.664Z,5.60
2017-11-14T22:09:16.882Z,5.70
2017-11-14T22:11:44.319Z,5.70
2017-11-14T22:14:11.763Z,5.70
2017-11-14T22:16:39.262Z,5.70
2017-11-14T22:19:06.702Z,5.80
2017-11-14T22:21:34.134Z,5.80
2017-11-14T22:24:01.585Z,5.70
2017-11-14T22:26:29.862Z,5.60
2017-11-14T22:29:00.079Z,5.70
2017-11-14T22:31:28.289Z,5.70
2017-11-14T22:33:55.725Z,5.60
2017-11-14T22:36:23.174Z,5.70
2017-11-14T22:38:51.379Z,5.70
2017-11-14T22:41:18.968Z,5.70
2017-11-14T22:43:46.415Z,5.70
2017-11-14T22:46:13.865Z,5.70
2017-11-14T22:48:41.299Z,5.70
2017-11-14T22:51:08.737Z,5.70
2017-11-14T22:53:36.180Z,5.70
2017-11-14T22:56:03.625Z,5.70
2017-11-14T22:58:31.057Z,5.60
2017-11-14T23:00:58.497Z,5.60
2017-11-14T23:03:25.947Z,5.60
2017-11-14T23:05:53.377Z,5.60
2017-11-14T23:08:21.594Z,5.60
2017-11-14T23:10:49.040Z,5.60
2017-11-14T23:13:16.477Z,5.60
2017-11-14T23:15:43.906Z,5.60
2017-11-14T23:18:12.115Z,5.70
2017-11-14T23:20:39.546Z,5.70
2017-11-14T23:23:07.746Z,5.80
2017-11-14T23:25:35.177Z,5.80
2017-11-14T23:28:03.393Z,5.80
2017-11-14T23:30:30.850Z,5.80
2017-11-14T23:32:58.309Z,5.90
2017-11-14T23:35:25.731Z,5.90
2017-11-14T23:37:53.173Z,5.90
2017-11-14T23:40:20.606Z,6.00
2017-11-14T23:42:48.080Z,6.00
2017-11-14T23:45:15.518Z,5.90
2017-11-14T23:47:42.948Z,5.90
2017-11-14T23:50:11.407Z,5.90
2017-11-14T23:52:38.828Z,5.80
2017-11-14T23:55:06.281Z,5.80
2017-11-14T23:57:33.709Z,5.80
